Latest Weather Observations for South Channel Island

IDV60801

Issued at 3:02 am EDT Thursday 29 January 2015 (issued every 30 minutes, with the page automatically refreshed every 10 minutes)

About weather observations | Map of weather stations | Latest weather observations for VIC | Other Formats
Station Details ID: 086344 Name: SOUTH CHANNEL ISLAND Lat: -38.31 Lon: 144.80 Height: 9.0 m
Data from the previous 72 hours. | See also: Recent months for locations in Victoria
Date/Time
EDT
Temp
°C
App
Temp
°C
Dew
Point
Rel
Hum
%
Delta-T
°C
Wind Press
QNH
hPa
Press
MSL
hPa
Rain
since 9 am
mm
Dir
 
Spd
km/h
Gust
km/h
Spd
kts
Gust
kts
29/02:30am - - - - - ESE 33 41 18 22 - - -
29/02:00am - - - - - ESE 30 35 16 19 - - -
29/01:30am - - - - - ESE 35 41 19 22 - - -
29/01:00am - - - - - ESE 37 43 20 23 - - -
29/12:30am - - - - - ESE 35 43 19 23 - - -
29/12:00am - - - - - ESE 37 46 20 25 - - -
 
Date/Time
EDT
Temp
°C
App
Temp
°C
Dew
Point
Rel
Hum
%
Delta-T
°C
Wind Press
QNH
hPa
Press
MSL
hPa
Rain
since 9 am
mm
Dir
 
Spd
km/h
Gust
km/h
Spd
kts
Gust
kts
28/11:30pm - - - - - ESE 41 48 22 26 - - -
28/11:00pm - - - - - ESE 41 50 22 27 - - -
28/10:30pm - - - - - ESE 37 46 20 25 - - -
28/10:00pm - - - - - SE 33 39 18 21 - - -
28/09:30pm - - - - - SSE 35 41 19 22 - - -
28/09:00pm - - - - - SSE 37 41 20 22 - - -
28/08:30pm - - - - - SSE 39 48 21 26 - - -
28/08:00pm - - - - - SSE 39 48 21 26 - - -
28/07:30pm - - - - - SE 41 50 22 27 - - -
28/07:00pm - - - - - SE 46 54 25 29 - - -
28/06:30pm - - - - - SE 48 57 26 31 - - -
28/06:00pm - - - - - SE 50 59 27 32 - - -
28/05:30pm - - - - - SE 54 65 29 35 - - -
28/05:00pm - - - - - SE 52 63 28 34 - - -
28/04:30pm - - - - - SE 54 61 29 33 - - -
28/04:00pm - - - - - SSE 48 56 26 30 - - -
28/03:30pm - - - - - SE 52 57 28 31 - - -
28/03:00pm - - - - - SE 48 59 26 32 - - -
28/02:30pm - - - - - SSE 48 56 26 30 - - -
28/02:00pm - - - - - SE 46 56 25 30 - - -
28/01:30pm - - - - - SE 44 52 24 28 - - -
28/01:00pm - - - - - SE 44 52 24 28 - - -
28/12:30pm - - - - - SE 41 50 22 27 - - -
28/12:00pm - - - - - SE 35 43 19 23 - - -
28/11:30am - - - - - SE 33 39 18 21 - - -
28/11:00am - - - - - ESE 35 46 19 25 - - -
28/10:30am - - - - - SE 32 39 17 21 - - -
28/10:00am - - - - - ESE 33 41 18 22 - - -
28/09:30am - - - - - ESE 26 37 14 20 - - -
28/09:00am - - - - - ESE 30 39 16 21 - - -
28/08:30am - - - - - ESE 32 39 17 21 - - -
28/08:00am - - - - - ESE 28 33 15 18 - - -
28/07:30am - - - - - E 24 30 13 16 - - -
28/07:00am - - - - - SE 20 26 11 14 - - -
28/06:30am - - - - - SE 20 26 11 14 - - -
28/06:00am - - - - - SE 19 22 10 12 - - -
28/05:30am - - - - - SE 19 24 10 13 - - -
28/05:00am - - - - - SSE 19 24 10 13 - - -
28/04:30am - - - - - SSE 20 24 11 13 - - -
28/04:00am - - - - - SSE 22 26 12 14 - - -
28/03:30am - - - - - SSE 22 28 12 15 - - -
28/03:00am - - - - - S 24 28 13 15 - - -
28/02:30am - - - - - S 28 32 15 17 - - -
28/02:00am - - - - - S 26 33 14 18 - - -
28/01:30am - - - - - S 32 37 17 20 - - -
28/01:00am - - - - - SSE 28 35 15 19 - - -
28/12:30am - - - - - SSE 24 30 13 16 - - -
28/12:00am - - - - - SSE 30 35 16 19 - - -
 
Date/Time
EDT
Temp
°C
App
Temp
°C
Dew
Point
Rel
Hum
%
Delta-T
°C
Wind Press
QNH
hPa
Press
MSL
hPa
Rain
since 9 am
mm
Dir
 
Spd
km/h
Gust
km/h
Spd
kts
Gust
kts
27/11:30pm - - - - - SSE 32 37 17 20 - - -
27/11:00pm - - - - - SSE 35 41 19 22 - - -
27/10:30pm - - - - - S 35 39 19 21 - - -
27/10:00pm - - - - - S 35 43 19 23 - - -
27/09:30pm - - - - - S 33 37 18 20 - - -
27/09:00pm - - - - - S 32 37 17 20 - - -
27/08:30pm - - - - - S 32 39 17 21 - - -
27/08:00pm - - - - - S 35 41 19 22 - - -
27/07:30pm - - - - - S 35 44 19 24 - - -
27/07:00pm - - - - - S 35 43 19 23 - - -
27/06:30pm - - - - - S 35 44 19 24 - - -
27/06:00pm - - - - - S 35 44 19 24 - - -
27/05:30pm - - - - - S 37 44 20 24 - - -
27/05:00pm - - - - - S 37 46 20 25 - - -
27/04:30pm - - - - - S 37 44 20 24 - - -
27/04:00pm - - - - - S 41 56 22 30 - - -
27/03:30pm - - - - - S 41 48 22 26 - - -
27/03:00pm - - - - - S 35 41 19 22 - - -
27/02:30pm - - - - - S 33 39 18 21 - - -
27/02:00pm - - - - - S 33 39 18 21 - - -
27/01:30pm - - - - - S 37 44 20 24 - - -
27/01:00pm - - - - - S 35 41 19 22 - - -
27/12:30pm - - - - - S 33 43 18 23 - - -
27/12:00pm - - - - - S 30 35 16 19 - - -
27/11:30am - - - - - S 32 39 17 21 - - -
27/11:00am - - - - - S 33 39 18 21 - - -
27/10:30am - - - - - S 32 35 17 19 - - -
27/10:00am - - - - - S 30 39 16 21 - - -
27/09:30am - - - - - S 33 39 18 21 - - -
27/09:00am - - - - - SSE 32 37 17 20 - - -
27/08:30am - - - - - SSE 30 35 16 19 - - -
27/08:00am - - - - - SSE 30 33 16 18 - - -
27/07:30am - - - - - SSE 30 33 16 18 - - -
27/07:00am - - - - - SSE 30 33 16 18 - - -
27/06:30am - - - - - SSE 32 35 17 19 - - -
27/06:00am - - - - - SSE 30 33 16 18 - - -
27/05:30am - - - - - SSE 30 35 16 19 - - -
27/05:00am - - - - - SSE 28 33 15 18 - - -
27/04:30am - - - - - SSE 26 30 14 16 - - -
27/04:00am - - - - - SSE 26 30 14 16 - - -
27/03:30am - - - - - SSE 28 30 15 16 - - -
27/03:00am - - - - - SSE 28 32 15 17 - - -
27/02:30am - - - - - SSE 28 32 15 17 - - -
27/02:00am - - - - - SSE 28 32 15 17 - - -
27/01:30am - - - - - SSE 28 32 15 17 - - -
27/01:00am - - - - - SE 24 28 13 15 - - -
27/12:30am - - - - - SSE 26 30 14 16 - - -
27/12:00am - - - - - SSE 28 33 15 18 - - -
 
Date/Time
EDT
Temp
°C
App
Temp
°C
Dew
Point
Rel
Hum
%
Delta-T
°C
Wind Press
QNH
hPa
Press
MSL
hPa
Rain
since 9 am
mm
Dir
 
Spd
km/h
Gust
km/h
Spd
kts
Gust
kts
26/11:30pm - - - - - SSE 28 32 15 17 - - -
26/11:00pm - - - - - SSE 28 32 15 17 - - -
26/10:30pm - - - - - SSE 30 35 16 19 - - -
26/10:00pm - - - - - SSE 28 33 15 18 - - -
26/09:30pm - - - - - SSE 30 33 16 18 - - -
26/09:00pm - - - - - SSE 28 33 15 18 - - -
26/08:30pm - - - - - SSE 30 35 16 19 - - -
26/08:00pm - - - - - SSE 30 37 16 20 - - -
26/07:30pm - - - - - SSE 30 35 16 19 - - -
26/07:00pm - - - - - S 32 41 17 22 - - -
26/06:30pm - - - - - S 32 39 17 21 - - -
26/06:00pm - - - - - S 32 39 17 21 - - -
26/05:30pm - - - - - S 32 39 17 21 - - -
26/05:00pm - - - - - S 33 39 18 21 - - -
26/04:30pm - - - - - S 33 43 18 23 - - -
26/04:00pm - - - - - S 35 41 19 22 - - -
26/03:30pm - - - - - S 35 41 19 22 - - -
26/03:00pm - - - - - S 33 41 18 22 - - -
26/02:30pm - - - - - S 32 37 17 20 - - -
26/02:00pm - - - - - S 32 39 17 21 - - -
26/01:30pm - - - - - S 30 35 16 19 - - -
26/01:00pm - - - - - S 28 35 15 19 - - -
26/12:30pm - - - - - SSW 26 32 14 17 - - -
26/12:00pm - - - - - SSW 24 30 13 16 - - -
26/11:30am - - - - - SSW 20 30 11 16 - - -
26/11:00am - - - - - SSW 22 28 12 15 - - -
26/10:30am - - - - - SSW 22 30 12 16 - - -
26/10:00am - - - - - SSW 22 30 12 16 - - -
26/09:30am - - - - - S 22 30 12 16 - - -
26/09:00am - - - - - WSW 19 28 10 15 - - -
26/08:30am - - - - - SSW 19 28 10 15 - - -
26/08:00am - - - - - SSW 24 33 13 18 - - -
26/07:30am - - - - - SSW 28 32 15 17 - - -
26/07:00am - - - - - SW 24 30 13 16 - - -
26/06:30am - - - - - W 17 26 9 14 - - -
26/06:00am - - - - - WNW 30 33 16 18 - - -
26/05:30am - - - - - W 20 28 11 15 - - -
26/05:00am - - - - - SW 20 26 11 14 - - -
26/04:30am - - - - - SW 22 30 12 16 - - -
26/04:00am - - - - - W 20 35 11 19 - - -
26/03:30am - - - - - S 17 20 9 11 - - -

Other Formats:

Comma delimited format used in spreadsheet applications
http://www.bom.gov.au/fwo/IDV60801/IDV60801.94853.axf

JavaScript Object Notation format (JSON) in row-major order
http://www.bom.gov.au/fwo/IDV60801/IDV60801.94853.json